createdAt,value
2018-05-09T00:01:58.176Z,69.40
2018-05-09T00:04:24.298Z,69.50
2018-05-09T00:06:51.137Z,71.30
2018-05-09T00:09:17.185Z,71.20
2018-05-09T00:11:43.220Z,72.40
2018-05-09T00:14:09.306Z,72.20
2018-05-09T00:16:35.438Z,71.10
2018-05-09T00:19:01.496Z,70.40
2018-05-09T00:21:27.688Z,71.10
2018-05-09T00:23:53.810Z,72.90
2018-05-09T00:26:20.670Z,72.90
2018-05-09T00:28:47.561Z,73.60
2018-05-09T00:31:13.642Z,73.60
2018-05-09T00:33:39.740Z,76.40
2018-05-09T00:36:05.834Z,76.60
2018-05-09T00:38:31.896Z,76.00
2018-05-09T00:40:57.955Z,75.60
2018-05-09T00:43:24.778Z,76.60
2018-05-09T00:45:50.871Z,76.70
2018-05-09T00:48:16.905Z,80.00
2018-05-09T00:50:45.197Z,80.40
2018-05-09T00:53:11.237Z,77.60
2018-05-09T00:55:38.042Z,79.50
2018-05-09T00:58:04.134Z,79.40
2018-05-09T01:00:30.253Z,81.10
2018-05-09T01:02:57.026Z,81.10
2018-05-09T01:05:23.168Z,81.90
2018-05-09T01:07:49.277Z,83.10
2018-05-09T01:10:15.375Z,83.10
2018-05-09T01:12:41.423Z,82.60
2018-05-09T01:15:08.262Z,85.50
2018-05-09T01:17:34.374Z,85.50
2018-05-09T01:20:00.458Z,85.60
2018-05-09T01:22:26.625Z,86.90
2018-05-09T01:24:52.751Z,85.40
2018-05-09T01:27:18.837Z,85.90
2018-05-09T01:29:44.906Z,85.70
2018-05-09T01:32:11.027Z,86.10
2018-05-09T01:34:37.135Z,86.80
2018-05-09T01:37:03.227Z,85.00
2018-05-09T01:39:29.417Z,84.00
2018-05-09T01:41:55.526Z,83.50
2018-05-09T01:44:21.682Z,85.80
2018-05-09T01:46:47.790Z,84.40
2018-05-09T01:49:13.869Z,86.30
2018-05-09T01:51:40.012Z,87.50
2018-05-09T01:54:06.055Z,88.30
2018-05-09T01:56:32.181Z,89.10
2018-05-09T01:58:58.977Z,87.80
2018-05-09T02:01:25.053Z,87.70
2018-05-09T02:03:51.110Z,86.70
2018-05-09T02:06:17.195Z,87.30
2018-05-09T02:08:43.220Z,86.80
2018-05-09T02:11:10.028Z,87.50
2018-05-09T02:13:36.192Z,87.50
2018-05-09T02:16:03.012Z,89.30
2018-05-09T02:18:29.072Z,89.10
2018-05-09T02:20:56.169Z,87.20
2018-05-09T02:23:22.198Z,87.10
2018-05-09T02:25:48.234Z,87.60
2018-05-09T02:28:14.312Z,88.60
2018-05-09T02:30:40.346Z,89.30
2018-05-09T02:33:06.410Z,89.50
2018-05-09T02:35:32.533Z,88.90
2018-05-09T02:37:58.612Z,89.40
2018-05-09T02:40:24.675Z,89.90
2018-05-09T02:42:50.809Z,89.00
2018-05-09T02:45:16.868Z,88.70
2018-05-09T02:47:42.993Z,88.80
2018-05-09T02:50:09.023Z,90.10
2018-05-09T02:52:35.847Z,89.40
2018-05-09T02:55:01.890Z,89.50
2018-05-09T02:57:27.956Z,89.50
2018-05-09T02:59:54.018Z,88.50
2018-05-09T03:02:20.885Z,89.70
2018-05-09T03:04:46.939Z,89.70
2018-05-09T03:07:12.991Z,89.80
2018-05-09T03:09:39.064Z,90.00
2018-05-09T03:12:05.921Z,90.00
2018-05-09T03:14:32.013Z,90.00
2018-05-09T03:16:58.097Z,90.20
2018-05-09T03:19:24.231Z,90.90
2018-05-09T03:21:50.298Z,89.80
2018-05-09T03:24:16.393Z,91.20
2018-05-09T03:26:42.480Z,91.60
2018-05-09T03:29:08.533Z,92.20
2018-05-09T03:31:34.655Z,92.60
2018-05-09T03:34:00.745Z,92.20
2018-05-09T03:36:26.826Z,93.10
2018-05-09T03:38:52.882Z,93.30
2018-05-09T03:41:18.973Z,93.30
2018-05-09T03:43:45.021Z,93.10
2018-05-09T03:46:11.131Z,93.00
2018-05-09T03:48:37.221Z,93.10
2018-05-09T03:51:03.259Z,93.50
2018-05-09T03:53:29.312Z,94.30
2018-05-09T03:55:55.369Z,93.50
2018-05-09T03:58:21.415Z,92.80
2018-05-09T04:00:48.238Z,93.80
2018-05-09T04:03:26.701Z,93.80
2018-05-09T04:06:05.607Z,93.10
2018-05-09T04:08:44.649Z,94.30
2018-05-09T04:11:10.740Z,94.30
2018-05-09T04:13:37.591Z,94.60
2018-05-09T04:16:04.370Z,93.40
2018-05-09T04:18:30.489Z,93.40
2018-05-09T04:20:56.571Z,93.60
2018-05-09T04:23:22.611Z,94.00
2018-05-09T04:25:48.758Z,92.90
2018-05-09T04:28:14.934Z,93.00
2018-05-09T04:30:40.897Z,92.90
2018-05-09T04:33:07.731Z,94.00
2018-05-09T04:35:33.751Z,93.90
2018-05-09T04:38:00.574Z,95.40
2018-05-09T04:40:26.663Z,95.30
2018-05-09T04:42:52.726Z,95.50
2018-05-09T04:45:18.786Z,95.50
2018-05-09T04:47:45.610Z,94.90
2018-05-09T04:50:11.718Z,94.90
2018-05-09T04:52:38.199Z,94.90
2018-05-09T04:55:04.258Z,95.30
2018-05-09T04:57:30.336Z,95.80
2018-05-09T04:59:56.412Z,95.30
2018-05-09T05:02:22.538Z,95.60
2018-05-09T05:04:48.630Z,95.30
2018-05-09T05:07:14.679Z,95.40
2018-05-09T05:09:40.775Z,94.80
2018-05-09T05:12:06.839Z,94.10
2018-05-09T05:14:32.852Z,94.40
2018-05-09T05:16:58.902Z,94.10
2018-05-09T05:19:24.978Z,94.50
2018-05-09T05:21:51.050Z,94.50
2018-05-09T05:24:17.142Z,94.40
2018-05-09T05:26:43.216Z,94.20
2018-05-09T05:29:09.316Z,94.20
2018-05-09T05:31:35.370Z,94.70
2018-05-09T05:34:01.438Z,94.50
2018-05-09T05:36:27.493Z,93.90
2018-05-09T05:38:53.655Z,93.60
2018-05-09T05:41:20.348Z,94.00
2018-05-09T05:43:46.460Z,93.90
2018-05-09T05:46:12.514Z,94.60
2018-05-09T05:48:38.569Z,94.60
2018-05-09T05:51:04.649Z,94.40
2018-05-09T05:53:30.741Z,94.20
2018-05-09T05:55:57.584Z,93.70
2018-05-09T05:58:24.391Z,93.60
2018-05-09T06:00:50.463Z,93.80
2018-05-09T06:03:16.617Z,94.40
2018-05-09T06:05:42.691Z,94.10
2018-05-09T06:08:08.765Z,93.00
2018-05-09T06:10:34.806Z,92.90
2018-05-09T06:13:01.221Z,92.60
2018-05-09T06:15:27.328Z,92.30
2018-05-09T06:17:54.102Z,91.80
2018-05-09T06:20:20.211Z,92.20
2018-05-09T06:22:46.248Z,91.60
2018-05-09T06:25:12.367Z,91.40
2018-05-09T06:27:38.432Z,91.10
2018-05-09T06:30:04.495Z,90.90
2018-05-09T06:32:31.308Z,91.60
2018-05-09T06:34:57.419Z,91.60
2018-05-09T06:37:23.521Z,91.20
2018-05-09T06:39:50.282Z,90.80
2018-05-09T06:42:16.336Z,90.50
2018-05-09T06:44:42.430Z,90.50
2018-05-09T06:47:08.505Z,90.60
2018-05-09T06:49:35.326Z,90.30
2018-05-09T06:52:01.430Z,90.30
2018-05-09T06:54:27.479Z,88.60
2018-05-09T06:56:53.514Z,88.10
2018-05-09T06:59:19.578Z,89.70
2018-05-09T07:01:45.632Z,91.40
2018-05-09T07:04:11.706Z,90.10
2018-05-09T07:06:38.513Z,89.00
2018-05-09T07:09:04.534Z,89.00
2018-05-09T07:11:30.563Z,88.00
2018-05-09T07:13:56.616Z,88.90
2018-05-09T07:16:22.726Z,89.00
2018-05-09T07:18:48.774Z,86.00
2018-05-09T07:21:15.592Z,87.40
2018-05-09T07:23:41.706Z,87.40
2018-05-09T07:26:07.764Z,85.10
2018-05-09T07:28:33.850Z,85.90
2018-05-09T07:30:59.965Z,83.50
2018-05-09T07:33:26.032Z,82.60
2018-05-09T07:35:52.065Z,82.30
2018-05-09T07:38:18.156Z,83.40
2018-05-09T07:40:44.199Z,81.30
2018-05-09T07:43:10.312Z,80.30
2018-05-09T07:45:36.354Z,82.40
2018-05-09T07:48:02.436Z,82.70
2018-05-09T07:50:28.515Z,79.50
2018-05-09T07:52:54.535Z,80.30
2018-05-09T07:55:20.915Z,80.50
2018-05-09T07:57:46.960Z,79.90
2018-05-09T08:00:13.083Z,77.80
2018-05-09T08:02:39.174Z,76.20
2018-05-09T08:05:05.282Z,80.50
2018-05-09T08:07:31.340Z,79.40
2018-05-09T08:09:57.445Z,78.50
2018-05-09T08:12:24.270Z,74.20
2018-05-09T08:14:50.359Z,74.10
2018-05-09T08:17:16.455Z,71.40
2018-05-09T08:19:42.546Z,72.80
2018-05-09T08:22:08.577Z,73.10
2018-05-09T08:24:34.601Z,74.00
2018-05-09T08:27:00.721Z,72.50
2018-05-09T08:29:26.803Z,74.40
2018-05-09T08:31:52.893Z,69.10
2018-05-09T08:34:19.704Z,71.20
2018-05-09T08:36:45.902Z,71.20
2018-05-09T08:39:11.916Z,70.30
2018-05-09T08:41:37.980Z,69.30
2018-05-09T08:44:04.174Z,66.50
2018-05-09T08:46:30.121Z,69.50
2018-05-09T08:48:56.211Z,67.90
2018-05-09T08:51:22.271Z,67.70
2018-05-09T08:53:48.342Z,65.30
2018-05-09T08:56:15.186Z,64.30
2018-05-09T08:58:41.274Z,64.40
2018-05-09T09:01:07.322Z,64.20
2018-05-09T09:03:33.435Z,63.10
2018-05-09T09:05:59.576Z,61.30
2018-05-09T09:08:25.647Z,62.90
2018-05-09T09:10:51.702Z,63.30
2018-05-09T09:13:17.878Z,63.50
2018-05-09T09:15:44.003Z,60.50
2018-05-09T09:18:09.980Z,62.20
2018-05-09T09:20:36.111Z,61.30
2018-05-09T09:23:02.170Z,60.60
2018-05-09T09:25:28.238Z,61.80
2018-05-09T09:27:54.384Z,61.40
2018-05-09T09:30:20.464Z,61.30
2018-05-09T09:32:47.299Z,62.50
2018-05-09T09:35:13.329Z,62.40
2018-05-09T09:37:40.165Z,63.50
2018-05-09T09:40:07.315Z,64.70
2018-05-09T09:42:33.399Z,64.70
2018-05-09T09:44:59.483Z,69.30
2018-05-09T09:47:26.351Z,66.30
2018-05-09T09:49:52.420Z,66.20
2018-05-09T09:52:18.465Z,62.70
2018-05-09T09:54:45.304Z,63.20
2018-05-09T09:57:11.435Z,63.10
2018-05-09T09:59:38.315Z,64.30
2018-05-09T10:02:04.360Z,64.20
2018-05-09T10:04:30.574Z,64.30
2018-05-09T10:06:56.631Z,64.80
2018-05-09T10:09:22.741Z,62.70
2018-05-09T10:11:48.765Z,64.00
2018-05-09T10:14:14.856Z,60.20
2018-05-09T10:16:40.949Z,60.00
2018-05-09T10:19:07.015Z,61.70
2018-05-09T10:21:33.076Z,61.10
2018-05-09T10:23:59.175Z,61.30
2018-05-09T10:26:25.278Z,56.20
2018-05-09T10:28:51.379Z,56.00
2018-05-09T10:31:17.485Z,56.80
2018-05-09T10:33:43.548Z,56.30
2018-05-09T10:36:10.367Z,57.60
2018-05-09T10:38:36.389Z,57.70
2018-05-09T10:41:02.475Z,56.30
2018-05-09T10:43:28.557Z,56.60
2018-05-09T10:45:54.661Z,57.40
2018-05-09T10:48:20.722Z,56.60
2018-05-09T10:50:46.870Z,58.10
2018-05-09T10:53:12.955Z,56.50
2018-05-09T10:55:39.033Z,56.00
2018-05-09T10:58:05.105Z,56.50
2018-05-09T11:00:31.224Z,57.30
2018-05-09T11:02:57.350Z,56.80
2018-05-09T11:05:23.447Z,56.60
2018-05-09T11:07:49.493Z,57.70
2018-05-09T11:10:15.610Z,56.00
2018-05-09T11:12:41.676Z,58.80
2018-05-09T11:15:07.813Z,56.60
2018-05-09T11:17:34.713Z,54.50
2018-05-09T11:20:00.995Z,54.50
2018-05-09T11:22:27.164Z,52.90
2018-05-09T11:24:53.295Z,52.10
2018-05-09T11:27:19.505Z,52.30
2018-05-09T11:29:45.634Z,53.10
2018-05-09T11:32:11.913Z,53.30
2018-05-09T11:34:38.766Z,52.40
2018-05-09T11:37:04.993Z,52.40
2018-05-09T11:39:31.889Z,50.30
2018-05-09T11:41:58.180Z,50.30
2018-05-09T11:44:24.287Z,50.50
2018-05-09T11:46:50.383Z,52.10
2018-05-09T11:49:16.584Z,50.30
2018-05-09T11:51:42.805Z,48.70
2018-05-09T11:54:09.023Z,50.40
2018-05-09T11:56:35.195Z,50.80
2018-05-09T11:59:01.303Z,51.70
2018-05-09T12:01:27.448Z,51.90
2018-05-09T12:03:53.586Z,48.80
2018-05-09T12:06:19.732Z,51.10
2018-05-09T12:08:46.637Z,48.80
2018-05-09T12:11:12.706Z,48.80
2018-05-09T12:13:38.891Z,49.60
2018-05-09T12:16:05.650Z,47.90
2018-05-09T12:18:32.382Z,48.10
2018-05-09T12:20:59.149Z,45.70
2018-05-09T12:23:25.842Z,42.60
2018-05-09T12:25:51.843Z,42.40
2018-05-09T12:28:18.532Z,41.30
2018-05-09T12:30:44.523Z,41.10
2018-05-09T12:33:11.267Z,42.20
2018-05-09T12:35:37.221Z,42.10
2018-05-09T12:38:03.951Z,45.00
2018-05-09T12:40:29.926Z,45.00
2018-05-09T12:42:55.903Z,45.50
2018-05-09T12:45:21.854Z,46.90
2018-05-09T12:47:47.816Z,47.00
2018-05-09T12:50:13.798Z,45.50
2018-05-09T12:52:39.864Z,43.90
2018-05-09T12:55:05.846Z,43.70
2018-05-09T12:57:31.810Z,40.70
2018-05-09T12:59:57.827Z,39.50
2018-05-09T13:02:23.854Z,35.80
2018-05-09T13:04:49.822Z,34.60
2018-05-09T13:07:15.831Z,35.20
2018-05-09T13:09:41.810Z,36.40
2018-05-09T13:12:08.611Z,38.30
2018-05-09T13:14:35.306Z,38.30
2018-05-09T13:17:01.274Z,38.00
2018-05-09T13:19:27.999Z,32.80
2018-05-09T13:21:53.979Z,32.70
2018-05-09T13:24:19.984Z,31.60
2018-05-09T13:26:45.957Z,31.80
2018-05-09T13:29:12.005Z,34.80
2018-05-09T13:31:38.061Z,36.20
2018-05-09T13:34:04.010Z,39.60
2018-05-09T13:36:30.095Z,42.10
2018-05-09T13:38:56.044Z,47.30
2018-05-09T13:41:22.044Z,55.30
2018-05-09T13:43:48.057Z,59.50
2018-05-09T13:46:14.026Z,58.50
2018-05-09T13:48:40.026Z,58.60
2018-05-09T13:51:06.020Z,63.70
2018-05-09T13:53:32.176Z,61.10
2018-05-09T13:55:58.139Z,59.50
2018-05-09T13:58:24.139Z,60.30
2018-05-09T14:00:50.107Z,60.50
2018-05-09T14:03:16.105Z,62.00
2018-05-09T14:05:42.108Z,62.60
2018-05-09T14:08:08.083Z,60.60
2018-05-09T14:10:34.079Z,54.50
2018-05-09T14:13:00.023Z,48.90
2018-05-09T14:15:26.783Z,41.00
2018-05-09T14:17:53.512Z,41.50
2018-05-09T14:20:19.458Z,40.90
2018-05-09T14:22:45.434Z,38.60
2018-05-09T14:25:11.418Z,36.60
2018-05-09T14:27:37.479Z,36.50
2018-05-09T14:30:04.183Z,37.60
2018-05-09T14:32:30.197Z,37.50
2018-05-09T14:34:56.198Z,39.00
2018-05-09T14:37:22.928Z,43.60
2018-05-09T14:39:48.936Z,43.50
2018-05-09T14:42:14.930Z,43.70
2018-05-09T14:44:41.625Z,40.30
2018-05-09T14:47:07.618Z,40.00
2018-05-09T14:49:33.622Z,39.10
2018-05-09T14:51:59.634Z,39.80
2018-05-09T14:54:25.651Z,38.40
2018-05-09T14:56:52.350Z,41.00
2018-05-09T14:59:18.321Z,41.00
2018-05-09T15:01:45.023Z,40.90
2018-05-09T15:04:11.038Z,40.80
2018-05-09T15:06:37.007Z,41.20
2018-05-09T15:09:03.002Z,40.40
2018-05-09T15:11:29.760Z,41.70
2018-05-09T15:13:55.784Z,41.70
2018-05-09T15:16:22.510Z,42.50
2018-05-09T15:18:48.472Z,42.40
2018-05-09T15:21:14.462Z,43.50
2018-05-09T15:23:40.455Z,43.70
2018-05-09T15:26:06.452Z,43.70
2018-05-09T15:28:32.409Z,42.70
2018-05-09T15:30:59.183Z,45.30
2018-05-09T15:33:25.163Z,45.30
2018-05-09T15:35:51.197Z,44.90
2018-05-09T15:38:17.170Z,45.90
2018-05-09T15:40:43.919Z,46.00
2018-05-09T15:43:10.607Z,46.40
2018-05-09T15:45:36.578Z,46.40
2018-05-09T15:48:02.551Z,45.90
2018-05-09T15:50:29.252Z,46.40
2018-05-09T15:52:55.230Z,46.40
2018-05-09T15:55:21.957Z,46.50
2018-05-09T15:57:47.947Z,46.40
2018-05-09T16:00:13.910Z,47.10
2018-05-09T16:02:39.928Z,46.80
2018-05-09T16:05:05.917Z,47.60
2018-05-09T16:07:31.859Z,47.90
2018-05-09T16:09:58.635Z,47.70
2018-05-09T16:12:24.617Z,47.70
2018-05-09T16:14:50.581Z,47.30
2018-05-09T16:17:17.310Z,46.10
2018-05-09T16:19:43.262Z,46.10
2018-05-09T16:22:09.261Z,46.30
2018-05-09T16:24:35.238Z,46.40
2018-05-09T16:27:01.218Z,46.20
2018-05-09T16:29:27.200Z,46.60
2018-05-09T16:31:53.196Z,46.80
2018-05-09T16:34:19.155Z,46.70
2018-05-09T16:36:45.150Z,47.10
2018-05-09T16:39:11.143Z,47.60
2018-05-09T16:41:37.130Z,47.40
2018-05-09T16:44:03.107Z,48.00
2018-05-09T16:46:29.166Z,48.50
2018-05-09T16:48:55.867Z,47.50
2018-05-09T16:51:21.845Z,47.40
2018-05-09T16:53:47.798Z,47.10
2018-05-09T16:56:13.783Z,47.00
2018-05-09T16:58:39.782Z,47.30
2018-05-09T17:01:06.513Z,47.30
2018-05-09T17:03:32.468Z,47.20
2018-05-09T17:05:59.198Z,47.60
2018-05-09T17:08:25.193Z,47.50
2018-05-09T17:10:51.150Z,47.70
2018-05-09T17:13:17.136Z,48.00
2018-05-09T17:15:43.827Z,48.40
2018-05-09T17:18:09.790Z,48.40
2018-05-09T17:20:35.771Z,48.60
2018-05-09T17:23:01.796Z,48.60
2018-05-09T17:25:27.804Z,48.90
2018-05-09T17:27:53.804Z,49.10
2018-05-09T17:30:19.765Z,49.80
2018-05-09T17:32:45.759Z,50.30
2018-05-09T17:35:11.710Z,50.90
2018-05-09T17:37:37.732Z,51.10
2018-05-09T17:40:03.728Z,51.30
2018-05-09T17:42:29.809Z,51.70
2018-05-09T17:44:55.721Z,52.20
2018-05-09T17:47:21.677Z,52.60
2018-05-09T17:49:47.723Z,52.90
2018-05-09T17:52:13.721Z,53.50
2018-05-09T17:54:40.423Z,58.40
2018-05-09T17:57:06.409Z,69.10
2018-05-09T17:59:35.411Z,69.70
2018-05-09T18:02:02.133Z,70.40
2018-05-09T18:04:28.143Z,69.90
2018-05-09T18:06:54.124Z,71.20
2018-05-09T18:09:20.126Z,72.00
2018-05-09T18:11:46.114Z,72.70
2018-05-09T18:14:12.815Z,76.90
2018-05-09T18:16:38.775Z,75.50
2018-05-09T18:19:04.746Z,76.10
2018-05-09T18:21:31.452Z,77.20
2018-05-09T18:23:57.454Z,75.40
2018-05-09T18:26:23.439Z,76.60
2018-05-09T18:28:49.422Z,77.00
2018-05-09T18:31:15.389Z,77.50
2018-05-09T18:33:41.414Z,78.50
2018-05-09T18:36:08.752Z,81.30
2018-05-09T18:38:35.512Z,82.00
2018-05-09T18:41:01.483Z,80.60
2018-05-09T18:43:27.483Z,81.30
2018-05-09T18:45:53.431Z,81.20
2018-05-09T18:48:19.484Z,81.50
2018-05-09T18:50:45.443Z,81.90
2018-05-09T18:53:11.470Z,82.90
2018-05-09T18:55:37.418Z,83.70
2018-05-09T18:58:03.375Z,84.20
2018-05-09T19:00:30.078Z,85.30
2018-05-09T19:02:56.032Z,82.80
2018-05-09T19:05:22.015Z,83.40
2018-05-09T19:07:48.717Z,84.90
2018-05-09T19:10:14.703Z,83.00
2018-05-09T19:12:41.431Z,85.40
2018-05-09T19:15:07.398Z,83.50
2018-05-09T19:17:33.372Z,83.40
2018-05-09T19:19:59.319Z,83.60
2018-05-09T19:22:25.317Z,83.70
2018-05-09T19:24:51.283Z,83.70
2018-05-09T19:27:17.258Z,83.70
2018-05-09T19:29:43.938Z,84.90
2018-05-09T19:32:09.898Z,82.00
2018-05-09T19:34:35.882Z,82.30
2018-05-09T19:37:02.573Z,84.80
2018-05-09T19:39:28.555Z,83.70
2018-05-09T19:41:54.548Z,84.50
2018-05-09T19:44:20.502Z,85.40
2018-05-09T19:46:46.484Z,85.80
2018-05-09T19:49:13.232Z,88.70
2018-05-09T19:51:39.937Z,89.00
2018-05-09T19:54:20.899Z,87.50
2018-05-09T19:56:46.847Z,88.70
2018-05-09T19:59:12.838Z,89.20
2018-05-09T20:01:38.786Z,89.60
2018-05-09T20:04:05.518Z,90.70
2018-05-09T20:06:31.473Z,91.00
2018-05-09T20:08:58.168Z,91.10
2018-05-09T20:11:24.138Z,87.50
2018-05-09T20:13:50.100Z,87.80
2018-05-09T20:16:16.837Z,88.60
2018-05-09T20:18:43.554Z,89.60
2018-05-09T20:21:09.571Z,88.40
2018-05-09T20:23:35.624Z,88.30
2018-05-09T20:26:02.267Z,90.30
2018-05-09T20:28:28.235Z,90.20
2018-05-09T20:31:00.298Z,90.90
2018-05-09T20:33:27.403Z,67.10
2018-05-09T20:35:54.090Z,67.30
2018-05-09T20:38:20.074Z,67.20
2018-05-09T20:40:46.031Z,67.70
2018-05-09T20:43:12.746Z,67.80
2018-05-09T20:45:38.731Z,67.70
2018-05-09T20:48:04.698Z,68.60
2018-05-09T20:50:30.694Z,69.00
2018-05-09T20:52:57.366Z,69.30
2018-05-09T20:55:26.343Z,69.30
2018-05-09T20:57:53.030Z,70.00
2018-05-09T21:00:19.048Z,69.10
2018-05-09T21:02:44.994Z,69.80
2018-05-09T21:05:10.972Z,69.60
2018-05-09T21:07:49.252Z,69.90
2018-05-09T21:10:15.246Z,70.30
2018-05-09T21:12:41.202Z,70.60
2018-05-09T21:15:07.895Z,70.20
2018-05-09T21:17:33.902Z,70.10
2018-05-09T21:20:06.914Z,71.10
2018-05-09T21:22:32.806Z,70.40
2018-05-09T21:24:58.782Z,71.50
2018-05-09T21:27:24.779Z,71.70
2018-05-09T21:29:50.726Z,72.90
2018-05-09T21:32:16.680Z,72.30
2018-05-09T21:34:42.702Z,72.70
2018-05-09T21:37:09.403Z,73.90
2018-05-09T21:39:35.396Z,73.50
2018-05-09T21:42:02.078Z,74.90
2018-05-09T21:44:28.065Z,74.90
2018-05-09T21:46:54.060Z,75.80
2018-05-09T21:49:20.051Z,75.90
2018-05-09T21:51:46.010Z,76.30
2018-05-09T21:54:12.003Z,76.60
2018-05-09T21:56:37.982Z,76.70
2018-05-09T21:59:03.975Z,76.80
2018-05-09T22:01:30.031Z,79.00
2018-05-09T22:03:56.731Z,79.60
2018-05-09T22:06:22.706Z,79.60
2018-05-09T22:08:48.690Z,80.00
2018-05-09T22:11:14.672Z,78.70
2018-05-09T22:13:47.581Z,78.30
2018-05-09T22:16:13.559Z,78.20
2018-05-09T22:18:39.510Z,78.90
2018-05-09T22:21:05.506Z,78.80
2018-05-09T22:23:31.582Z,77.50
2018-05-09T22:25:57.458Z,77.40
2018-05-09T22:28:24.918Z,79.40
2018-05-09T22:30:50.867Z,79.40
2018-05-09T22:33:16.858Z,79.40
2018-05-09T22:35:42.863Z,79.60
2018-05-09T22:38:09.552Z,79.80
2018-05-09T22:40:35.552Z,79.70
2018-05-09T22:43:02.265Z,81.00
2018-05-09T22:45:28.251Z,81.00
2018-05-09T22:47:54.243Z,82.00
2018-05-09T22:50:20.248Z,82.40
2018-05-09T22:52:46.211Z,82.90
2018-05-09T22:55:12.175Z,83.00
2018-05-09T22:57:38.914Z,84.90
2018-05-09T23:00:04.874Z,84.60
2018-05-09T23:02:31.703Z,86.70
2018-05-09T23:04:57.709Z,86.70
2018-05-09T23:07:24.352Z,85.70
2018-05-09T23:09:50.350Z,85.70
2018-05-09T23:12:17.035Z,87.30
2018-05-09T23:14:43.023Z,87.20
2018-05-09T23:17:09.110Z,87.50
2018-05-09T23:19:35.051Z,89.70
2018-05-09T23:22:01.039Z,89.40
2018-05-09T23:24:27.739Z,90.70
2018-05-09T23:26:53.725Z,90.70
2018-05-09T23:29:20.423Z,89.90
2018-05-09T23:31:46.410Z,89.00
2018-05-09T23:34:12.358Z,88.40
2018-05-09T23:36:39.120Z,89.10
2018-05-09T23:39:05.808Z,90.00
2018-05-09T23:41:31.775Z,89.90
2018-05-09T23:43:57.767Z,90.30
2018-05-09T23:46:23.719Z,89.90
2018-05-09T23:48:49.729Z,91.10
2018-05-09T23:51:15.710Z,91.80
2018-05-09T23:53:41.678Z,91.90
2018-05-09T23:56:08.403Z,91.60
2018-05-09T23:58:34.385Z,91.60
